Time;durP1;ratioP1;P1;durP2;ratioP2;P2;SDS_P1;SDS_P2;PMS_P1;PMS_P2;Temp;Humidity;BMP_temperature;BMP_pressure;BME280_temperature;BME280_humidity;BME280_pressure;Samples;Min_cycle;Max_cycle;Signal;HPM_P1;HPM_P2
2023/01/06 00:00:42;;;;;;;4.05;1.55;;;;;;;8.16;53.89;100693.38;4940483;28;97531;-76
2023/01/06 00:03:08;;;;;;;6.40;2.08;;;;;;;8.14;53.56;100689.06;4959382;28;97450;-76
2023/01/06 00:05:34;;;;;;;6.72;2.03;;;;;;;7.98;54.01;100670.19;4941673;28;97641;-76
2023/01/06 00:07:59;;;;;;;5.45;1.60;;;;;;;8.07;53.76;100690.94;4927786;28;97377;-76
2023/01/06 00:10:25;;;;;;;3.30;1.52;;;;;;;8.04;54.08;100700.59;4924611;28;97624;-75
2023/01/06 00:12:52;;;;;;;5.80;1.77;;;;;;;8.01;54.22;100701.50;4944108;28;99423;-75
2023/01/06 00:15:18;;;;;;;5.53;1.52;;;;;;;8.01;53.72;100704.13;4928006;28;100727;-76
2023/01/06 00:17:44;;;;;;;5.60;1.70;;;;;;;8.01;54.16;100709.34;4906527;28;97699;-76
2023/01/06 00:20:10;;;;;;;7.15;1.90;;;;;;;8.00;54.15;100711.97;4910005;28;98472;-76
2023/01/06 00:22:38;;;;;;;4.53;1.60;;;;;;;7.98;54.17;100713.78;4910310;28;97870;-75
2023/01/06 00:25:04;;;;;;;5.88;1.67;;;;;;;7.94;54.22;100716.44;4924799;28;97677;-75
2023/01/06 00:27:30;;;;;;;3.30;1.35;;;;;;;7.86;54.53;100713.09;4926070;28;97237;-75
2023/01/06 00:29:55;;;;;;;6.10;1.50;;;;;;;7.85;54.59;100715.72;4929195;28;97080;-75
2023/01/06 00:32:21;;;;;;;6.15;1.67;;;;;;;7.84;54.60;100724.44;4923384;28;101352;-76
2023/01/06 00:34:47;;;;;;;2.40;1.25;;;;;;;7.82;54.24;100718.38;4911643;28;101192;-75
2023/01/06 00:37:12;;;;;;;4.40;1.63;;;;;;;7.69;54.49;100704.66;4894611;28;96960;-76
2023/01/06 00:39:38;;;;;;;5.82;2.17;;;;;;;7.72;54.64;100721.13;4927426;28;97227;-76
2023/01/06 00:42:04;;;;;;;2.33;1.40;;;;;;;7.70;54.84;100730.75;4925861;28;97978;-75
2023/01/06 00:44:31;;;;;;;8.68;1.60;;;;;;;7.71;54.81;100745.56;4922151;28;101269;-76
2023/01/06 00:46:57;;;;;;;6.85;1.40;;;;;;;7.67;55.07;100743.00;4890703;28;96871;-76
2023/01/06 00:49:23;;;;;;;3.80;1.13;;;;;;;7.69;55.13;100756.91;4910706;28;97912;-76
2023/01/06 00:51:48;;;;;;;6.10;1.83;;;;;;;7.62;54.85;100756.16;4922239;28;101152;-77
2023/01/06 00:54:14;;;;;;;5.40;1.73;;;;;;;7.63;55.19;100763.09;4952268;28;98500;-76
2023/01/06 00:56:42;;;;;;;6.10;2.20;;;;;;;7.60;55.11;100762.28;4909239;28;97028;-76
2023/01/06 00:59:08;;;;;;;9.02;2.65;;;;;;;7.56;55.05;100753.59;4929748;28;97327;-76
2023/01/06 01:01:34;;;;;;;7.50;2.75;;;;;;;7.56;55.12;100766.66;4955232;28;98655;-76
2023/01/06 01:04:00;;;;;;;8.07;2.80;;;;;;;7.55;55.54;100777.16;4928778;28;101200;-76
2023/01/06 01:06:26;;;;;;;9.43;2.72;;;;;;;7.52;55.03;100772.84;4915764;28;96901;-75
2023/01/06 01:08:57;;;;;;;6.13;2.38;;;;;;;7.53;55.32;100774.56;4912798;28;98886;-75
2023/01/06 01:14:07;;;;;;;5.80;2.28;;;;;;;7.48;55.46;100786.84;4941385;28;101523;-75
2023/01/06 01:16:33;;;;;;;4.72;2.00;;;;;;;7.35;55.48;100769.59;4911819;28;97003;-76
2023/01/06 01:18:59;;;;;;;5.22;2.00;;;;;;;7.43;55.29;100786.03;4905797;28;97321;-75
2023/01/06 01:21:26;;;;;;;5.90;1.77;;;;;;;7.36;55.59;100786.97;4943139;28;99442;-76
2023/01/06 01:23:51;;;;;;;5.57;1.60;;;;;;;7.40;55.91;100791.31;4926892;28;101859;-75
2023/01/06 01:26:17;;;;;;;4.47;1.65;;;;;;;7.38;55.79;100791.31;4928748;28;97316;-75
2023/01/06 01:28:43;;;;;;;4.85;1.60;;;;;;;7.33;55.62;100800.09;4926420;28;97110;-76
2023/01/06 01:31:09;;;;;;;5.70;2.08;;;;;;;7.33;56.02;100794.88;4936822;28;98163;-76
2023/01/06 01:33:36;;;;;;;4.78;1.45;;;;;;;7.32;55.87;100803.59;4900084;28;101464;-76
2023/01/06 01:36:10;;;;;;;3.38;1.58;;;;;;;7.26;56.31;100805.38;4929952;28;96835;-75
2023/01/06 01:38:36;;;;;;;4.65;1.50;;;;;;;7.29;56.22;100808.84;4917880;28;97343;-75
2023/01/06 01:41:02;;;;;;;4.53;1.38;;;;;;;7.33;56.34;100806.19;4938454;28;99228;-75
2023/01/06 01:43:42;;;;;;;4.57;1.85;;;;;;;7.31;56.07;100810.56;4920225;28;101771;-75
2023/01/06 01:46:08;;;;;;;3.45;1.75;;;;;;;7.31;56.15;100810.56;4940424;28;96967;-76
2023/01/06 01:48:34;;;;;;;3.88;1.77;;;;;;;7.26;56.24;100805.38;4937029;28;97187;-75
2023/01/06 01:51:04;;;;;;;3.70;1.60;;;;;;;7.24;56.57;100801.06;4912185;28;101785;-75
2023/01/06 01:53:33;;;;;;;4.97;1.40;;;;;;;7.21;56.58;100811.56;4913797;28;101052;-75
2023/01/06 01:56:01;;;;;;;4.70;1.75;;;;;;;7.14;56.59;100802.94;4908854;28;97139;-76
2023/01/06 01:58:36;;;;;;;5.22;1.60;;;;;;;7.13;56.75;100810.81;4918189;28;97297;-75
2023/01/06 02:01:01;;;;;;;5.68;1.80;;;;;;;7.11;56.48;100818.66;4946705;28;98402;-75
2023/01/06 02:03:28;;;;;;;7.15;1.88;;;;;;;7.07;56.39;100816.06;4925137;28;101217;-76
2023/01/06 02:05:56;;;;;;;3.15;1.77;;;;;;;6.94;56.56;100799.69;4929802;28;97138;-75
2023/01/06 02:08:27;;;;;;;3.60;1.58;;;;;;;7.07;56.36;100821.28;4909185;28;97305;-75
2023/01/06 02:10:53;;;;;;;4.95;1.83;;;;;;;7.02;56.38;100831.81;4909025;28;101387;-77
2023/01/06 02:13:18;;;;;;;6.40;2.08;;;;;;;7.02;56.78;100822.22;4900979;28;101114;-75
2023/01/06 02:15:44;;;;;;;5.15;1.90;;;;;;;7.01;56.64;100824.84;4934573;28;98482;-76
2023/01/06 02:18:36;;;;;;;5.22;1.88;;;;;;;7.02;56.85;100830.06;4919430;28;96978;-80
2023/01/06 02:21:14;;;;;;;5.18;1.95;;;;;;;6.96;56.68;100822.28;4926117;28;101337;-75
2023/01/06 02:23:55;;;;;;;7.00;2.15;;;;;;;6.96;56.89;100817.06;4931366;28;99662;-75
2023/01/06 02:26:52;;;;;;;4.47;1.75;;;;;;;6.90;57.28;100824.13;4911988;28;97184;-75
2023/01/06 02:29:49;;;;;;;5.05;2.00;;;;;;;6.85;57.23;100826.75;4909228;28;96880;-76
2023/01/06 02:32:37;;;;;;;8.25;3.25;;;;;;;6.82;57.20;100824.19;4921680;28;101187;-76
2023/01/06 02:35:19;;;;;;;6.95;3.40;;;;;;;6.70;57.57;100795.63;4900450;28;101376;-75
2023/01/06 02:38:21;;;;;;;7.45;3.60;;;;;;;6.64;57.30;100787.88;4929867;28;96787;-75
2023/01/06 02:41:29;;;;;;;7.93;2.80;;;;;;;6.76;57.54;100819.91;4917001;28;96692;-75
2023/01/06 02:43:58;;;;;;;3.60;2.00;;;;;;;6.76;57.82;100812.06;4906572;28;101805;-75
2023/01/06 02:46:31;;;;;;;6.80;2.40;;;;;;;6.71;57.86;100810.38;4936398;28;101286;-75
2023/01/06 02:49:09;;;;;;;7.72;2.38;;;;;;;6.73;58.01;100817.31;4920491;28;97598;-75
2023/01/06 02:51:46;;;;;;;4.68;1.52;;;;;;;6.60;58.30;100791.38;4936795;28;97689;-75
2023/01/06 02:54:19;;;;;;;6.25;2.45;;;;;;;6.60;58.14;100800.06;4941202;28;99206;-75
2023/01/06 02:56:50;;;;;;;6.25;2.13;;;;;;;6.65;58.11;100820.88;4916656;28;101540;-76
2023/01/06 02:59:28;;;;;;;;;;;;;;;6.63;58.42;100810.44;4883551;28;97331;-75
2023/01/06 03:01:55;;;;;;;7.43;2.15;;;;;;;6.68;58.35;100815.63;4925658;28;96957;-75
2023/01/06 03:04:28;;;;;;;5.88;2.55;;;;;;;6.65;58.38;100820.88;4919324;28;101060;-76
2023/01/06 03:06:55;;;;;;;5.57;2.22;;;;;;;6.64;58.68;100811.34;4936925;28;101765;-75
2023/01/06 03:09:27;;;;;;;6.47;2.43;;;;;;;6.65;58.60;100815.66;4924097;28;96872;-75
2023/01/06 03:11:52;;;;;;;5.20;2.17;;;;;;;6.44;58.25;100788.91;4922202;28;97952;-76
2023/01/06 03:14:38;;;;;;;6.00;2.67;;;;;;;6.57;58.55;100818.34;4908354;28;101192;-76
2023/01/06 03:17:03;;;;;;;7.50;2.97;;;;;;;6.53;58.41;100812.28;4924523;28;101719;-75
2023/01/06 03:19:30;;;;;;;5.30;2.42;;;;;;;6.53;58.31;100822.72;4932915;28;97064;-77
2023/01/06 03:21:58;;;;;;;6.10;2.60;;;;;;;6.53;58.84;100821.88;4901731;28;96943;-75
2023/01/06 03:24:24;;;;;;;5.20;2.13;;;;;;;6.51;58.45;100810.59;4913345;28;101980;-75
2023/01/06 03:26:52;;;;;;;5.63;2.40;;;;;;;6.51;59.25;100808.84;4928384;28;101458;-76
2023/01/06 03:29:19;;;;;;;5.78;2.40;;;;;;;6.50;59.21;100809.72;4928294;28;97191;-76
2023/01/06 03:31:59;;;;;;;7.65;2.70;;;;;;;6.52;59.33;100815.78;4932036;28;97078;-76
2023/01/06 03:34:53;;;;;;;7.53;2.95;;;;;;;6.50;58.98;100814.94;4914153;28;101793;-76
2023/01/06 03:37:47;;;;;;;8.73;3.10;;;;;;;6.43;59.49;100810.66;4914832;28;101082;-76
2023/01/06 03:40:26;;;;;;;4.68;2.65;;;;;;;6.25;59.00;100788.22;4919910;28;97343;-75
2023/01/06 03:43:33;;;;;;;6.50;2.85;;;;;;;6.41;59.16;100819.38;4914949;28;98557;-75
2023/01/06 03:46:15;;;;;;;5.03;2.60;;;;;;;6.38;59.04;100828.09;4914161;28;101766;-76
2023/01/06 03:48:52;;;;;;;5.55;2.75;;;;;;;6.38;59.25;100822.88;4913653;28;100276;-75
2023/01/06 03:51:38;;;;;;;7.60;2.93;;;;;;;6.36;59.42;100824.63;4920893;28;97169;-75
2023/01/06 03:54:27;;;;;;;5.73;2.83;;;;;;;6.34;59.44;100819.44;4921732;28;97458;-75
2023/01/06 03:57:23;;;;;;;7.57;2.78;;;;;;;6.28;59.32;100811.69;4954760;28;102362;-75
2023/01/06 03:59:53;;;;;;;10.17;2.90;;;;;;;6.29;59.79;100809.94;4957207;28;101181;-75
2023/01/06 04:02:20;;;;;;;5.32;2.67;;;;;;;6.28;59.40;100818.59;4943486;28;96801;-75
2023/01/06 04:05:01;;;;;;;6.72;2.88;;;;;;;6.25;60.03;100821.25;4918351;28;97305;-75
2023/01/06 04:07:28;;;;;;;6.85;2.75;;;;;;;6.32;59.70;100825.53;4930849;28;101620;-75
2023/01/06 04:09:53;;;;;;;6.72;3.05;;;;;;;6.36;60.29;100819.41;4919184;28;101144;-75
2023/01/06 04:12:38;;;;;;;11.65;3.42;;;;;;;6.36;60.31;100822.03;4926713;28;97169;-76
2023/01/06 04:15:05;;;;;;;8.73;3.58;;;;;;;6.27;60.19;100801.25;4933000;28;97979;-76
2023/01/06 04:17:31;;;;;;;7.57;3.08;;;;;;;6.42;60.17;100818.50;4925197;28;101724;-76
2023/01/06 04:19:56;;;;;;;13.65;5.07;;;;;;;6.29;60.27;100786.47;4903380;28;101412;-75
2023/01/06 04:22:22;;;;;;;8.93;3.33;;;;;;;6.40;60.20;100808.09;4922599;28;97091;-75
2023/01/06 04:24:47;;;;;;;6.45;2.78;;;;;;;6.41;60.33;100808.97;4922456;28;97698;-75
2023/01/06 04:27:13;;;;;;;5.60;3.08;;;;;;;6.40;60.38;100809.81;4918470;28;101417;-75
2023/01/06 04:29:39;;;;;;;11.80;3.28;;;;;;;6.42;60.52;100800.25;4923350;28;97780;-75
2023/01/06 04:32:04;;;;;;;7.85;3.63;;;;;;;6.30;60.49;100793.41;4933856;28;97177;-75
2023/01/06 04:34:30;;;;;;;12.82;3.25;;;;;;;6.36;60.56;100798.56;4915911;28;98368;-76
2023/01/06 04:36:57;;;;;;;6.63;3.47;;;;;;;6.31;60.86;100790.78;4906990;28;101834;-75
2023/01/06 04:39:22;;;;;;;7.97;3.42;;;;;;;6.39;60.57;100802.88;4910509;28;101658;-75
2023/01/06 04:41:48;;;;;;;10.07;3.13;;;;;;;6.32;60.75;100800.31;4928969;28;97291;-75
2023/01/06 04:44:13;;;;;;;12.18;3.63;;;;;;;6.36;60.67;100795.94;4910978;28;97111;-75
2023/01/06 04:46:39;;;;;;;11.68;3.38;;;;;;;6.41;60.81;100799.38;4905646;28;102129;-75
2023/01/06 04:49:04;;;;;;;12.10;2.92;;;;;;;6.31;60.70;100780.34;4936922;28;97675;-76
2023/01/06 04:51:30;;;;;;;9.07;3.33;;;;;;;6.39;60.89;100798.53;4910497;28;97076;-75
2023/01/06 04:53:55;;;;;;;7.15;3.22;;;;;;;6.36;61.05;100798.56;4899251;28;97450;-75
2023/01/06 04:56:21;;;;;;;10.13;3.67;;;;;;;6.40;60.99;100810.72;4941794;28;101081;-75
2023/01/06 04:58:46;;;;;;;6.93;2.45;;;;;;;6.38;60.57;100801.16;4911199;28;97769;-76
2023/01/06 05:01:13;;;;;;;8.07;3.65;;;;;;;6.41;60.38;100803.75;4908210;28;96891;-75
2023/01/06 05:03:39;;;;;;;7.90;3.15;;;;;;;6.39;60.90;100806.34;4909395;28;97191;-75
2023/01/06 05:06:08;;;;;;;9.57;3.67;;;;;;;6.41;61.05;100815.03;4906558;28;100996;-75
2023/01/06 05:08:35;;;;;;;7.00;3.20;;;;;;;6.43;60.61;100812.38;4936205;28;101356;-77
2023/01/06 05:11:02;;;;;;;8.60;2.87;;;;;;;6.28;60.66;100797.75;4929645;28;96765;-76
2023/01/06 05:13:28;;;;;;;6.10;2.80;;;;;;;6.30;60.39;100796.00;4888824;28;96818;-75
2023/01/06 05:15:54;;;;;;;4.87;2.43;;;;;;;6.35;60.33;100807.25;4937053;28;97582;-75
2023/01/06 05:18:19;;;;;;;5.63;2.88;;;;;;;6.43;60.50;100817.59;4925574;28;100874;-77
2023/01/06 05:20:49;;;;;;;6.37;2.87;;;;;;;6.45;60.66;100803.69;4910334;28;97327;-75
2023/01/06 05:23:15;;;;;;;10.23;4.25;;;;;;;6.43;60.79;100797.63;4909900;28;97932;-76
2023/01/06 05:25:40;;;;;;;7.35;4.10;;;;;;;6.38;60.95;100803.78;4925426;28;101195;-76
2023/01/06 05:28:06;;;;;;;10.23;4.60;;;;;;;6.39;60.72;100810.69;4943638;28;101121;-75
2023/01/06 05:30:31;;;;;;;16.40;5.90;;;;;;;6.35;61.02;100813.34;4926439;28;97150;-75
2023/01/06 05:32:57;;;;;;;12.07;5.63;;;;;;;6.40;61.10;100800.28;4927593;28;96937;-75
2023/01/06 05:35:22;;;;;;;14.70;6.40;;;;;;;6.43;60.97;100802.84;4960510;28;97487;-75
2023/01/06 05:37:48;;;;;;;17.40;6.40;;;;;;;6.31;60.87;100796.00;4936118;28;100902;-75
2023/01/06 05:40:13;;;;;;;14.90;6.30;;;;;;;6.39;61.13;100801.13;4931775;28;96761;-75
2023/01/06 05:42:39;;;;;;;16.83;6.50;;;;;;;6.35;61.13;100800.31;4911240;28;97144;-75
2023/01/06 05:45:05;;;;;;;16.42;6.28;;;;;;;6.24;60.99;100773.44;4932490;28;97536;-75
2023/01/06 05:47:30;;;;;;;13.23;4.60;;;;;;;6.36;61.05;100801.16;4928875;28;97419;-76
2023/01/06 05:49:56;;;;;;;14.93;5.67;;;;;;;6.29;60.69;100802.97;4911077;28;97155;-75
2023/01/06 05:52:21;;;;;;;9.23;5.33;;;;;;;6.41;60.73;100817.63;4939460;28;96866;-75
2023/01/06 05:54:47;;;;;;;14.30;5.90;;;;;;;6.41;60.95;100814.16;4938238;28;97896;-75
2023/01/06 05:57:13;;;;;;;10.37;5.13;;;;;;;6.40;61.02;100800.28;4917970;28;101682;-76
2023/01/06 05:59:39;;;;;;;10.85;4.22;;;;;;;6.40;60.68;100799.38;4934829;28;97365;-75
2023/01/06 06:02:04;;;;;;;10.20;4.43;;;;;;;6.41;60.97;100801.13;4911072;28;96956;-75
2023/01/06 06:04:30;;;;;;;14.10;4.53;;;;;;;6.40;60.77;100812.41;4918015;28;101409;-76
2023/01/06 06:06:55;;;;;;;9.27;3.73;;;;;;;6.38;60.68;100806.38;4906072;28;97454;-75
2023/01/06 06:09:21;;;;;;;9.30;3.27;;;;;;;6.37;60.51;100808.13;4928083;28;97796;-75
2023/01/06 06:11:50;;;;;;;7.13;3.55;;;;;;;6.26;60.37;100792.56;4905319;28;101900;-75
2023/01/06 06:14:16;;;;;;;6.25;3.38;;;;;;;6.32;61.03;100805.53;4940740;28;98366;-77
2023/01/06 06:16:41;;;;;;;5.80;2.88;;;;;;;6.35;60.38;100799.44;4920979;28;101318;-76
2023/01/06 06:19:07;;;;;;;8.30;3.43;;;;;;;6.34;60.41;100805.50;4924070;28;97357;-76
2023/01/06 06:21:32;;;;;;;7.30;3.70;;;;;;;6.33;60.51;100806.41;4924637;28;97034;-75
2023/01/06 06:23:59;;;;;;;10.57;3.55;;;;;;;6.38;60.72;100822.88;4940910;28;97826;-75
2023/01/06 06:26:25;;;;;;;7.07;3.17;;;;;;;6.21;60.89;100796.94;4915059;28;100692;-76
2023/01/06 06:28:50;;;;;;;8.50;3.50;;;;;;;6.27;60.66;100803.84;4927407;28;96847;-76
2023/01/06 06:31:22;;;;;;;6.80;3.35;;;;;;;6.31;60.64;100824.69;4921895;28;98490;-78
2023/01/06 06:33:58;;;;;;;7.72;2.95;;;;;;;6.32;60.47;100825.53;4881368;28;100485;-77
2023/01/06 06:36:25;;;;;;;6.13;3.10;;;;;;;6.35;60.58;100821.16;4932851;28;101208;-76
2023/01/06 06:38:51;;;;;;;5.35;3.17;;;;;;;6.33;60.93;100816.84;4907440;28;97237;-78
2023/01/06 06:41:18;;;;;;;5.27;2.87;;;;;;;6.31;60.45;100829.00;4909758;28;98371;-78
2023/01/06 06:43:44;;;;;;;5.83;3.07;;;;;;;6.30;60.64;100822.06;4907766;28;101751;-78
2023/01/06 06:46:10;;;;;;;4.97;2.40;;;;;;;6.27;60.77;100819.50;4924692;28;101114;-76
2023/01/06 06:48:36;;;;;;;11.07;3.40;;;;;;;6.23;60.61;100813.44;4925419;28;96941;-76
2023/01/06 06:51:05;;;;;;;6.25;3.45;;;;;;;6.22;60.81;100818.66;4907901;28;96967;-77
2023/01/06 06:53:31;;;;;;;7.60;3.47;;;;;;;6.14;60.81;100821.34;4923707;28;101578;-76
2023/01/06 06:55:57;;;;;;;8.70;3.50;;;;;;;6.10;61.12;100825.69;4925531;28;101449;-77
2023/01/06 06:58:23;;;;;;;9.30;4.27;;;;;;;6.11;61.06;100821.38;4940525;28;97109;-76
2023/01/06 07:00:49;;;;;;;12.43;4.13;;;;;;;6.14;61.01;100816.13;4923998;28;97040;-76
2023/01/06 07:03:15;;;;;;;12.40;4.63;;;;;;;6.16;60.89;100816.09;4910941;28;97857;-76
2023/01/06 07:05:43;;;;;;;14.88;4.43;;;;;;;6.18;60.67;100823.03;4921501;28;100943;-77
2023/01/06 07:08:09;;;;;;;9.43;3.50;;;;;;;6.07;61.23;100812.69;4924365;28;97011;-76
2023/01/06 07:10:35;;;;;;;7.13;3.30;;;;;;;6.02;60.95;100809.28;4924165;28;97075;-77
2023/01/06 07:13:01;;;;;;;13.75;3.70;;;;;;;6.13;61.21;100824.81;4917972;28;97958;-76
2023/01/06 07:15:26;;;;;;;5.67;3.30;;;;;;;6.15;60.69;100830.88;4938839;28;97614;-77
2023/01/06 07:17:52;;;;;;;8.40;3.03;;;;;;;6.10;60.76;100817.03;4954074;28;98284;-76
2023/01/06 07:20:17;;;;;;;7.17;3.20;;;;;;;6.05;60.78;100800.53;4922122;28;97525;-76
2023/01/06 07:22:43;;;;;;;9.67;3.77;;;;;;;6.24;60.50;100833.41;4939950;28;101353;-76
2023/01/06 07:25:09;;;;;;;8.80;4.20;;;;;;;6.16;60.72;100814.38;4940261;28;101720;-76
2023/01/06 07:27:35;;;;;;;8.80;4.23;;;;;;;6.25;60.46;100827.31;4920751;28;97503;-77
2023/01/06 07:30:03;;;;;;;6.63;3.23;;;;;;;6.13;60.78;100828.28;4908882;28;97320;-76
2023/01/06 07:32:28;;;;;;;8.85;3.65;;;;;;;6.12;61.01;100833.53;4930897;28;101130;-76
2023/01/06 07:34:54;;;;;;;7.60;3.80;;;;;;;6.08;61.13;100827.47;4930257;28;101433;-76
2023/01/06 07:37:19;;;;;;;7.05;3.05;;;;;;;5.84;61.41;100819.78;4908375;28;97573;-75
2023/01/06 07:39:45;;;;;;;7.33;3.20;;;;;;;5.76;61.80;100824.16;4922359;28;97514;-76
2023/01/06 07:42:10;;;;;;;6.90;2.83;;;;;;;5.82;62.09;100824.16;4907637;28;101143;-76
2023/01/06 07:44:36;;;;;;;7.47;3.87;;;;;;;5.92;61.52;100818.00;4913744;28;100845;-77
2023/01/06 07:47:02;;;;;;;6.40;3.10;;;;;;;5.87;61.54;100807.59;4905076;28;97481;-77
2023/01/06 07:49:27;;;;;;;9.20;3.37;;;;;;;5.81;61.99;100805.03;4935466;28;97674;-76
2023/01/06 07:51:53;;;;;;;7.73;3.17;;;;;;;5.69;62.17;100779.06;4923061;28;101501;-75
2023/01/06 07:54:18;;;;;;;7.77;3.57;;;;;;;5.81;61.70;100796.34;4901883;28;100914;-76
2023/01/06 07:56:44;;;;;;;6.77;3.47;;;;;;;5.84;62.19;100797.19;4924740;28;96871;-76
2023/01/06 07:59:10;;;;;;;9.03;3.83;;;;;;;5.91;61.58;100790.22;4905728;28;97881;-76
2023/01/06 08:01:36;;;;;;;7.97;3.40;;;;;;;5.82;61.80;100767.69;4903649;28;101444;-78
2023/01/06 08:04:01;;;;;;;8.43;2.97;;;;;;;5.76;61.85;100777.28;4910281;28;97859;-77
2023/01/06 08:06:27;;;;;;;6.17;2.97;;;;;;;5.81;61.91;100781.59;4911079;28;97244;-76
2023/01/06 08:08:53;;;;;;;6.77;3.13;;;;;;;5.71;62.29;100774.72;4928373;28;96868;-76
2023/01/06 08:11:18;;;;;;;6.33;2.60;;;;;;;5.76;62.23;100770.34;4912014;28;97962;-75
2023/01/06 08:13:44;;;;;;;4.63;2.53;;;;;;;5.88;61.85;100775.47;4932537;28;100716;-76
2023/01/06 08:16:10;;;;;;;5.50;2.63;;;;;;;5.73;62.64;100785.13;4905472;28;96959;-76
2023/01/06 08:18:36;;;;;;;6.77;2.40;;;;;;;5.51;62.97;100789.63;4936313;28;97324;-76
2023/01/06 08:21:03;;;;;;;7.73;2.67;;;;;;;5.34;63.10;100779.28;4925177;28;101528;-76
2023/01/06 08:23:29;;;;;;;6.60;2.30;;;;;;;5.28;63.69;100776.72;4921480;28;97671;-77
2023/01/06 08:26:12;;;;;;;8.10;2.60;;;;;;;5.06;64.32;100784.63;4919312;28;97159;-77
2023/01/06 08:28:38;;;;;;;6.97;2.80;;;;;;;5.22;64.44;100783.69;4924912;28;97271;-77
2023/01/06 08:31:11;;;;;;;7.50;2.73;;;;;;;5.21;64.19;100765.47;4915550;28;101704;-78
2023/01/06 08:33:36;;;;;;;4.80;2.60;;;;;;;5.41;63.83;100774.03;4926961;28;101843;-77
2023/01/06 08:36:04;;;;;;;6.30;2.73;;;;;;;5.64;63.16;100773.00;4926971;28;97362;-77
2023/01/06 08:38:30;;;;;;;4.70;2.27;;;;;;;5.61;62.54;100745.28;4896661;28;97137;-77
2023/01/06 08:40:56;;;;;;;5.27;2.30;;;;;;;5.87;62.20;100762.44;4938453;28;101621;-77
2023/01/06 08:43:22;;;;;;;7.23;2.73;;;;;;;5.94;61.98;100752.88;4913448;28;97844;-77
2023/01/06 08:45:47;;;;;;;6.43;3.30;;;;;;;5.97;61.50;100745.03;4919975;28;97039;-78
2023/01/06 08:48:13;;;;;;;8.23;3.53;;;;;;;5.99;61.62;100748.47;4924968;28;97082;-77
2023/01/06 08:50:40;;;;;;;8.07;3.87;;;;;;;6.07;61.64;100744.06;4922698;28;101300;-77
2023/01/06 08:53:06;;;;;;;6.07;2.77;;;;;;;6.02;61.39;100741.53;4928524;28;97824;-77
2023/01/06 08:55:32;;;;;;;7.67;2.60;;;;;;;5.99;61.50;100744.16;4902537;28;97329;-77
2023/01/06 08:57:58;;;;;;;3.93;2.20;;;;;;;6.10;61.21;100744.03;4910200;28;97184;-78
2023/01/06 09:00:23;;;;;;;5.07;2.37;;;;;;;5.99;61.08;100717.19;4927411;28;101560;-77
2023/01/06 09:02:49;;;;;;;5.20;2.53;;;;;;;6.04;61.38;100737.13;4913328;28;101306;-78
2023/01/06 09:05:15;;;;;;;4.70;2.47;;;;;;;6.24;60.91;100752.59;4916260;28;98150;-77
2023/01/06 09:07:40;;;;;;;5.60;2.70;;;;;;;6.25;61.26;100756.91;4935596;28;97337;-77
2023/01/06 09:10:06;;;;;;;6.63;2.45;;;;;;;6.35;61.00;100755.97;4922620;28;97572;-77
2023/01/06 09:12:32;;;;;;;6.33;2.43;;;;;;;6.38;60.96;100752.47;4903773;28;100858;-77
2023/01/06 09:14:58;;;;;;;5.23;2.83;;;;;;;6.46;60.40;100747.19;4905823;28;97150;-79
2023/01/06 09:17:23;;;;;;;5.70;2.60;;;;;;;6.49;60.63;100739.34;4907532;28;97201;-77
2023/01/06 09:19:49;;;;;;;8.43;3.67;;;;;;;6.66;60.25;100755.66;4916887;28;101739;-77
2023/01/06 09:22:14;;;;;;;7.50;3.60;;;;;;;6.58;59.98;100726.19;4943197;28;97195;-77
2023/01/06 09:24:40;;;;;;;9.60;3.50;;;;;;;6.52;60.09;100713.22;4926613;28;97486;-77
2023/01/06 09:27:06;;;;;;;11.83;3.73;;;;;;;6.54;60.19;100725.38;4928052;28;97607;-77
2023/01/06 09:29:31;;;;;;;8.02;3.42;;;;;;;6.58;60.37;100731.41;4911000;28;101648;-78
2023/01/06 09:31:57;;;;;;;8.20;3.27;;;;;;;6.39;60.22;100699.44;4959335;28;97410;-77
2023/01/06 09:34:22;;;;;;;8.80;4.27;;;;;;;6.53;60.16;100738.41;4928343;28;96952;-78
2023/01/06 09:36:48;;;;;;;8.00;3.73;;;;;;;6.43;60.38;100732.44;4920685;28;97983;-77
2023/01/06 09:39:13;;;;;;;8.00;3.50;;;;;;;6.34;60.45;100730.78;4918177;28;101205;-77
2023/01/06 09:42:03;;;;;;;7.80;3.67;;;;;;;6.40;60.93;100734.19;4927599;28;101307;-77
2023/01/06 09:44:34;;;;;;;5.17;2.83;;;;;;;6.37;61.12;100748.16;4937778;28;96907;-77
2023/01/06 09:47:01;;;;;;;7.72;3.38;;;;;;;6.32;61.15;100734.28;4920221;28;97342;-77
2023/01/06 09:49:37;;;;;;;8.70;3.63;;;;;;;6.40;61.36;100735.06;4906709;28;100003;-77
2023/01/06 09:52:35;;;;;;;5.30;2.80;;;;;;;6.46;61.00;100729.78;4924687;28;101428;-78
2023/01/06 09:55:06;;;;;;;6.60;2.93;;;;;;;6.26;61.57;100708.28;4922011;28;97479;-78
2023/01/06 09:57:35;;;;;;;7.57;3.30;;;;;;;6.21;61.76;100720.50;4928082;28;96741;-77
2023/01/06 10:00:05;;;;;;;7.13;2.70;;;;;;;6.21;61.77;100723.09;4955288;28;97537;-78
2023/01/06 10:02:41;;;;;;;6.13;2.50;;;;;;;6.10;62.58;100717.97;4941538;28;98352;-77
2023/01/06 10:05:27;;;;;;;7.33;2.53;;;;;;;6.06;62.75;100703.25;4937597;28;98357;-77
2023/01/06 10:08:16;;;;;;;7.80;3.10;;;;;;;6.35;62.43;100721.22;4949239;28;97164;-78
2023/01/06 10:10:47;;;;;;;6.17;2.77;;;;;;;6.27;62.77;100704.78;4920935;28;101170;-77
2023/01/06 10:13:34;;;;;;;6.65;3.03;;;;;;;6.33;62.33;100697.75;4924224;28;100945;-77
2023/01/06 10:16:14;;;;;;;5.30;2.67;;;;;;;6.32;62.63;100693.44;4933434;28;97256;-79
2023/01/06 10:18:40;;;;;;;5.97;3.00;;;;;;;6.35;63.03;100692.53;4920651;28;97124;-78
2023/01/06 10:21:08;;;;;;;7.97;3.50;;;;;;;6.40;62.16;100682.91;4920876;28;101164;-78
2023/01/06 10:23:56;;;;;;;11.18;3.10;;;;;;;6.25;62.67;100664.81;4926227;28;101509;-78
2023/01/06 10:26:27;;;;;;;10.40;3.30;;;;;;;6.35;62.84;100674.28;4927980;28;97533;-78
2023/01/06 10:28:53;;;;;;;10.73;3.20;;;;;;;6.30;62.49;100639.56;4917673;28;98389;-78
2023/01/06 10:31:21;;;;;;;7.83;2.80;;;;;;;6.40;62.23;100661.16;4928469;28;100786;-79
2023/01/06 10:33:49;;;;;;;5.93;2.73;;;;;;;6.49;62.62;100661.09;4937114;28;98508;-79
2023/01/06 10:36:17;;;;;;;4.93;3.00;;;;;;;6.37;63.10;100649.06;4915491;28;97115;-79
2023/01/06 10:38:45;;;;;;;6.27;2.80;;;;;;;6.23;63.63;100644.00;4925342;28;97110;-80
2023/01/06 10:41:29;;;;;;;7.47;2.90;;;;;;;6.24;63.54;100648.31;4948718;28;98686;-79
2023/01/06 10:43:55;;;;;;;6.67;2.70;;;;;;;6.22;63.85;100636.16;4939766;28;97395;-79
2023/01/06 10:46:21;;;;;;;7.07;3.33;;;;;;;6.24;63.45;100637.88;4899153;28;97518;-80
2023/01/06 10:48:48;;;;;;;5.45;3.20;;;;;;;6.18;63.54;100619.72;4933678;28;97183;-81
2023/01/06 10:51:26;;;;;;;6.00;2.70;;;;;;;6.40;63.42;100642.91;4924161;28;101668;-80
2023/01/06 10:53:54;;;;;;;7.03;2.93;;;;;;;6.41;63.85;100629.00;4918393;28;98639;-80
2023/01/06 10:56:20;;;;;;;8.03;3.10;;;;;;;6.50;63.51;100631.50;4910344;28;97378;-79
2023/01/06 10:58:54;;;;;;;7.87;3.47;;;;;;;6.50;64.01;100627.16;4909514;28;97390;-78
2023/01/06 11:01:27;;;;;;;9.17;3.43;;;;;;;6.54;63.21;100615.81;4907725;28;101894;-79
2023/01/06 11:04:08;;;;;;;9.13;3.80;;;;;;;6.62;63.83;100617.44;4941350;28;97832;-79
2023/01/06 11:06:34;;;;;;;9.73;3.87;;;;;;;6.57;64.09;100573.16;4936248;28;98029;-78
2023/01/06 11:09:23;;;;;;;5.97;2.90;;;;;;;6.70;63.86;100582.53;4938202;28;96885;-80
2023/01/06 11:11:49;;;;;;;7.53;3.40;;;;;;;6.73;64.48;100585.09;4927356;28;101875;-79
2023/01/06 11:14:20;;;;;;;8.23;3.63;;;;;;;6.81;64.13;100582.41;4877677;28;100462;-78
2023/01/06 11:16:56;;;;;;;7.50;3.17;;;;;;;6.86;63.79;100567.50;4941201;28;97461;-78
2023/01/06 11:19:32;;;;;;;7.73;3.80;;;;;;;6.88;64.11;100565.75;4916111;28;98034;-78
2023/01/06 11:21:57;;;;;;;6.85;3.90;;;;;;;6.87;64.58;100564.03;4952086;28;101283;-83
2023/01/06 11:24:25;;;;;;;5.30;3.13;;;;;;;6.93;64.43;100571.78;4957341;28;97931;-80
2023/01/06 11:26:59;;;;;;;7.82;3.75;;;;;;;6.87;64.90;100560.56;4917525;28;97311;-83
2023/01/06 11:29:34;;;;;;;8.23;3.90;;;;;;;6.95;65.10;100550.84;4921643;28;97442;-85
2023/01/06 11:32:04;;;;;;;8.32;4.28;;;;;;;6.95;65.10;100543.91;4934024;28;100898;-85
2023/01/06 11:34:30;;;;;;;8.83;4.03;;;;;;;6.95;65.36;100537.81;4923261;28;100293;-84
2023/01/06 11:36:56;;;;;;;9.20;3.92;;;;;;;6.87;65.11;100514.47;4941849;28;98176;-85
2023/01/06 11:39:29;;;;;;;13.03;4.47;;;;;;;7.02;65.05;100545.53;4942406;28;97702;-85
2023/01/06 11:41:56;;;;;;;7.65;4.00;;;;;;;6.99;65.43;100534.28;4922767;28;101333;-78